sensor_id;sensor_type;location;lat;lon;timestamp;temperature;humidity
31084;DHT22;36333;51.382;0.016;2022-12-29T00:01:02;8.70;99.90
31084;DHT22;36333;51.382;0.016;2022-12-29T00:03:30;8.70;99.90
31084;DHT22;36333;51.382;0.016;2022-12-29T00:05:58;8.70;99.90
31084;DHT22;36333;51.382;0.016;2022-12-29T00:08:25;8.70;99.90
31084;DHT22;36333;51.382;0.016;2022-12-29T00:11:12;8.70;99.90
31084;DHT22;36333;51.382;0.016;2022-12-29T00:13:40;9.50;99.90
31084;DHT22;36333;51.382;0.016;2022-12-29T00:16:27;8.80;99.90
31084;DHT22;36333;51.382;0.016;2022-12-29T00:18:55;9.10;99.90
31084;DHT22;36333;51.382;0.016;2022-12-29T00:21:24;8.90;99.90
31084;DHT22;36333;51.382;0.016;2022-12-29T00:24:21;9.60;99.90
31084;DHT22;36333;51.382;0.016;2022-12-29T00:29:50;8.80;99.90
31084;DHT22;36333;51.382;0.016;2022-12-29T00:32:36;8.80;99.90
31084;DHT22;36333;51.382;0.016;2022-12-29T00:35:33;8.70;99.90
31084;DHT22;36333;51.382;0.016;2022-12-29T00:38:05;8.70;99.90
31084;DHT22;36333;51.382;0.016;2022-12-29T00:40:52;8.90;99.90
31084;DHT22;36333;51.382;0.016;2022-12-29T00:43:38;9.60;99.90
31084;DHT22;36333;51.382;0.016;2022-12-29T00:46:24;8.90;99.90
31084;DHT22;36333;51.382;0.016;2022-12-29T00:48:51;8.90;99.90
31084;DHT22;36333;51.382;0.016;2022-12-29T00:51:37;8.90;99.90
31084;DHT22;36333;51.382;0.016;2022-12-29T00:54:05;9.80;99.90
31084;DHT22;36333;51.382;0.016;2022-12-29T00:56:33;8.90;99.90
31084;DHT22;36333;51.382;0.016;2022-12-29T00:59:05;8.70;99.90
31084;DHT22;36333;51.382;0.016;2022-12-29T01:01:34;8.70;99.90
31084;DHT22;36333;51.382;0.016;2022-12-29T01:04:04;8.60;99.90
31084;DHT22;36333;51.382;0.016;2022-12-29T01:06:33;8.50;99.90
31084;DHT22;36333;51.382;0.016;2022-12-29T01:09:00;8.50;99.90
31084;DHT22;36333;51.382;0.016;2022-12-29T01:11:47;8.50;99.90
31084;DHT22;36333;51.382;0.016;2022-12-29T01:14:15;8.50;99.90
31084;DHT22;36333;51.382;0.016;2022-12-29T01:16:44;8.40;99.90
31084;DHT22;36333;51.382;0.016;2022-12-29T01:19:12;8.40;99.90
31084;DHT22;36333;51.382;0.016;2022-12-29T01:21:40;8.30;99.90
31084;DHT22;36333;51.382;0.016;2022-12-29T01:24:08;8.40;99.90
31084;DHT22;36333;51.382;0.016;2022-12-29T01:26:35;8.50;99.90
31084;DHT22;36333;51.382;0.016;2022-12-29T01:29:03;9.60;99.90
31084;DHT22;36333;51.382;0.016;2022-12-29T01:31:30;8.30;99.90
31084;DHT22;36333;51.382;0.016;2022-12-29T01:33:58;8.30;99.90
31084;DHT22;36333;51.382;0.016;2022-12-29T01:36:26;8.30;99.90
31084;DHT22;36333;51.382;0.016;2022-12-29T01:38:54;8.30;99.90
31084;DHT22;36333;51.382;0.016;2022-12-29T01:41:21;8.40;99.90
31084;DHT22;36333;51.382;0.016;2022-12-29T01:54:25;8.30;99.90
31084;DHT22;36333;51.382;0.016;2022-12-29T01:56:56;8.20;99.90
31084;DHT22;36333;51.382;0.016;2022-12-29T01:59:34;8.20;99.90
31084;DHT22;36333;51.382;0.016;2022-12-29T02:02:03;8.20;99.90
31084;DHT22;36333;51.382;0.016;2022-12-29T02:04:32;8.10;99.90
31084;DHT22;36333;51.382;0.016;2022-12-29T02:07:07;9.10;99.90
31084;DHT22;36333;51.382;0.016;2022-12-29T02:09:37;8.00;99.90
31084;DHT22;36333;51.382;0.016;2022-12-29T02:12:05;8.00;99.90
31084;DHT22;36333;51.382;0.016;2022-12-29T02:14:33;8.00;99.90
31084;DHT22;36333;51.382;0.016;2022-12-29T02:22:41;8.00;99.90
31084;DHT22;36333;51.382;0.016;2022-12-29T02:31:02;7.90;99.90
31084;DHT22;36333;51.382;0.016;2022-12-29T02:39:50;7.90;99.90
31084;DHT22;36333;51.382;0.016;2022-12-29T02:45:04;9.10;99.90
31084;DHT22;36333;51.382;0.016;2022-12-29T02:50:40;8.00;99.90
31084;DHT22;36333;51.382;0.016;2022-12-29T02:53:16;9.10;99.90
31084;DHT22;36333;51.382;0.016;2022-12-29T02:55:49;9.00;99.90
31084;DHT22;36333;51.382;0.016;2022-12-29T02:58:21;9.70;99.90
31084;DHT22;36333;51.382;0.016;2022-12-29T03:06:48;8.10;99.90
31084;DHT22;36333;51.382;0.016;2022-12-29T03:17:40;10.20;99.90
31084;DHT22;36333;51.382;0.016;2022-12-29T03:20:17;8.20;99.90
31084;DHT22;36333;51.382;0.016;2022-12-29T03:22:49;8.90;99.90
31084;DHT22;36333;51.382;0.016;2022-12-29T03:25:32;8.20;99.90
31084;DHT22;36333;51.382;0.016;2022-12-29T03:28:08;8.10;99.90
31084;DHT22;36333;51.382;0.016;2022-12-29T03:30:43;8.30;99.90
31084;DHT22;36333;51.382;0.016;2022-12-29T03:33:24;8.40;99.90
31084;DHT22;36333;51.382;0.016;2022-12-29T03:36:01;8.50;99.90
31084;DHT22;36333;51.382;0.016;2022-12-29T03:38:34;8.70;99.90
31084;DHT22;36333;51.382;0.016;2022-12-29T03:41:05;9.50;99.90
31084;DHT22;36333;51.382;0.016;2022-12-29T03:43:35;8.90;99.90
31084;DHT22;36333;51.382;0.016;2022-12-29T03:46:02;9.90;99.90
31084;DHT22;36333;51.382;0.016;2022-12-29T03:48:30;9.50;99.90
31084;DHT22;36333;51.382;0.016;2022-12-29T03:50:58;10.30;99.90
31084;DHT22;36333;51.382;0.016;2022-12-29T03:53:25;9.60;99.90
31084;DHT22;36333;51.382;0.016;2022-12-29T03:55:53;9.10;99.90
31084;DHT22;36333;51.382;0.016;2022-12-29T03:58:22;9.80;99.90
31084;DHT22;36333;51.382;0.016;2022-12-29T04:01:24;9.10;99.90
31084;DHT22;36333;51.382;0.016;2022-12-29T04:03:52;10.30;99.90
31084;DHT22;36333;51.382;0.016;2022-12-29T04:06:20;9.70;99.90
31084;DHT22;36333;51.382;0.016;2022-12-29T04:09:00;9.10;99.90
31084;DHT22;36333;51.382;0.016;2022-12-29T04:11:31;9.10;99.90
31084;DHT22;36333;51.382;0.016;2022-12-29T04:14:03;9.40;99.90
31084;DHT22;36333;51.382;0.016;2022-12-29T04:16:32;9.00;99.90
31084;DHT22;36333;51.382;0.016;2022-12-29T04:19:07;10.30;99.90
31084;DHT22;36333;51.382;0.016;2022-12-29T04:21:36;10.10;99.90
31084;DHT22;36333;51.382;0.016;2022-12-29T04:24:05;10.10;99.90
31084;DHT22;36333;51.382;0.016;2022-12-29T04:26:38;9.00;99.90
31084;DHT22;36333;51.382;0.016;2022-12-29T04:29:20;8.90;99.90
31084;DHT22;36333;51.382;0.016;2022-12-29T04:31:58;8.90;99.90
31084;DHT22;36333;51.382;0.016;2022-12-29T04:34:25;8.90;99.90
31084;DHT22;36333;51.382;0.016;2022-12-29T04:36:53;8.90;99.90
31084;DHT22;36333;51.382;0.016;2022-12-29T04:39:21;8.90;99.90
31084;DHT22;36333;51.382;0.016;2022-12-29T04:41:49;8.80;99.90
31084;DHT22;36333;51.382;0.016;2022-12-29T04:44:20;8.70;99.90
31084;DHT22;36333;51.382;0.016;2022-12-29T04:47:09;10.10;99.90
31084;DHT22;36333;51.382;0.016;2022-12-29T04:49:49;9.30;99.90
31084;DHT22;36333;51.382;0.016;2022-12-29T04:52:39;8.50;99.90
31084;DHT22;36333;51.382;0.016;2022-12-29T04:55:09;10.20;99.90
31084;DHT22;36333;51.382;0.016;2022-12-29T04:57:37;8.70;99.90
31084;DHT22;36333;51.382;0.016;2022-12-29T05:00:06;8.50;99.90
31084;DHT22;36333;51.382;0.016;2022-12-29T05:02:37;8.50;99.90
31084;DHT22;36333;51.382;0.016;2022-12-29T05:05:05;8.50;99.90
31084;DHT22;36333;51.382;0.016;2022-12-29T05:07:38;8.50;99.90
31084;DHT22;36333;51.382;0.016;2022-12-29T05:10:07;8.50;99.90
31084;DHT22;36333;51.382;0.016;2022-12-29T05:12:36;8.60;99.90
31084;DHT22;36333;51.382;0.016;2022-12-29T05:15:06;9.80;99.90
31084;DHT22;36333;51.382;0.016;2022-12-29T05:17:35;8.70;99.90
31084;DHT22;36333;51.382;0.016;2022-12-29T05:20:04;8.70;99.90
31084;DHT22;36333;51.382;0.016;2022-12-29T05:22:33;8.70;99.90
31084;DHT22;36333;51.382;0.016;2022-12-29T05:25:01;8.90;99.90
31084;DHT22;36333;51.382;0.016;2022-12-29T05:27:29;8.70;99.90
31084;DHT22;36333;51.382;0.016;2022-12-29T05:30:04;10.10;99.90
31084;DHT22;36333;51.382;0.016;2022-12-29T05:32:32;8.70;99.90
31084;DHT22;36333;51.382;0.016;2022-12-29T05:34:59;8.70;99.90
31084;DHT22;36333;51.382;0.016;2022-12-29T05:37:29;9.20;99.90
31084;DHT22;36333;51.382;0.016;2022-12-29T05:39:56;8.70;99.90
31084;DHT22;36333;51.382;0.016;2022-12-29T05:42:24;9.70;99.90
31084;DHT22;36333;51.382;0.016;2022-12-29T05:45:16;8.70;99.90
31084;DHT22;36333;51.382;0.016;2022-12-29T05:47:53;8.60;99.90
31084;DHT22;36333;51.382;0.016;2022-12-29T05:50:41;8.80;99.90
31084;DHT22;36333;51.382;0.016;2022-12-29T05:53:11;8.60;99.90
31084;DHT22;36333;51.382;0.016;2022-12-29T05:55:39;8.90;99.90
31084;DHT22;36333;51.382;0.016;2022-12-29T05:58:16;9.00;99.90
31084;DHT22;36333;51.382;0.016;2022-12-29T06:00:44;8.60;99.90
31084;DHT22;36333;51.382;0.016;2022-12-29T06:03:12;8.50;99.90
31084;DHT22;36333;51.382;0.016;2022-12-29T06:05:39;8.60;99.90
31084;DHT22;36333;51.382;0.016;2022-12-29T06:08:07;8.60;99.90
31084;DHT22;36333;51.382;0.016;2022-12-29T06:10:35;9.60;99.90
31084;DHT22;36333;51.382;0.016;2022-12-29T06:13:05;8.70;99.90
31084;DHT22;36333;51.382;0.016;2022-12-29T06:15:36;9.10;99.90
31084;DHT22;36333;51.382;0.016;2022-12-29T06:18:07;8.80;99.90
31084;DHT22;36333;51.382;0.016;2022-12-29T06:20:35;8.80;99.90
31084;DHT22;36333;51.382;0.016;2022-12-29T06:23:05;8.80;99.90
31084;DHT22;36333;51.382;0.016;2022-12-29T06:25:32;8.80;99.90
31084;DHT22;36333;51.382;0.016;2022-12-29T06:28:02;9.70;99.90
31084;DHT22;36333;51.382;0.016;2022-12-29T06:30:30;8.70;99.90
31084;DHT22;36333;51.382;0.016;2022-12-29T06:32:59;8.80;99.90
31084;DHT22;36333;51.382;0.016;2022-12-29T06:35:26;8.70;99.90
31084;DHT22;36333;51.382;0.016;2022-12-29T06:37:54;8.60;99.90
31084;DHT22;36333;51.382;0.016;2022-12-29T06:40:22;9.10;99.90
31084;DHT22;36333;51.382;0.016;2022-12-29T06:43:08;8.50;99.90
31084;DHT22;36333;51.382;0.016;2022-12-29T06:45:51;8.40;99.90
31084;DHT22;36333;51.382;0.016;2022-12-29T06:48:19;8.40;99.90
31084;DHT22;36333;51.382;0.016;2022-12-29T06:50:46;8.30;99.90
31084;DHT22;36333;51.382;0.016;2022-12-29T06:53:14;8.30;99.90
31084;DHT22;36333;51.382;0.016;2022-12-29T06:55:42;8.20;99.90
31084;DHT22;36333;51.382;0.016;2022-12-29T06:58:09;8.10;99.90
31084;DHT22;36333;51.382;0.016;2022-12-29T07:00:37;9.40;99.90
31084;DHT22;36333;51.382;0.016;2022-12-29T07:03:04;10.20;99.90
31084;DHT22;36333;51.382;0.016;2022-12-29T07:05:32;8.00;99.90
31084;DHT22;36333;51.382;0.016;2022-12-29T07:08:00;8.00;99.90
31084;DHT22;36333;51.382;0.016;2022-12-29T07:10:27;8.00;99.90
31084;DHT22;36333;51.382;0.016;2022-12-29T07:12:55;7.90;99.90
31084;DHT22;36333;51.382;0.016;2022-12-29T07:15:22;7.90;99.90
31084;DHT22;36333;51.382;0.016;2022-12-29T07:17:50;8.30;99.90
31084;DHT22;36333;51.382;0.016;2022-12-29T07:20:18;7.80;99.90
31084;DHT22;36333;51.382;0.016;2022-12-29T07:22:52;7.80;99.90
31084;DHT22;36333;51.382;0.016;2022-12-29T07:25:20;9.00;99.90
31084;DHT22;36333;51.382;0.016;2022-12-29T07:27:48;7.80;99.90
31084;DHT22;36333;51.382;0.016;2022-12-29T07:30:16;7.70;99.90
31084;DHT22;36333;51.382;0.016;2022-12-29T07:32:43;7.70;99.90
31084;DHT22;36333;51.382;0.016;2022-12-29T07:35:11;9.00;99.90
31084;DHT22;36333;51.382;0.016;2022-12-29T07:37:38;9.20;99.90
31084;DHT22;36333;51.382;0.016;2022-12-29T07:40:06;8.30;99.90
31084;DHT22;36333;51.382;0.016;2022-12-29T07:42:34;7.50;99.90
31084;DHT22;36333;51.382;0.016;2022-12-29T07:45:02;7.50;99.90
31084;DHT22;36333;51.382;0.016;2022-12-29T07:47:48;7.50;99.90
31084;DHT22;36333;51.382;0.016;2022-12-29T07:50:16;7.50;99.90
31084;DHT22;36333;51.382;0.016;2022-12-29T07:52:43;7.50;99.90
31084;DHT22;36333;51.382;0.016;2022-12-29T07:55:12;7.50;99.90
31084;DHT22;36333;51.382;0.016;2022-12-29T07:57:39;7.50;99.90
31084;DHT22;36333;51.382;0.016;2022-12-29T08:00:07;9.70;99.90
31084;DHT22;36333;51.382;0.016;2022-12-29T08:02:38;7.50;99.90
31084;DHT22;36333;51.382;0.016;2022-12-29T08:05:06;7.50;99.90
31084;DHT22;36333;51.382;0.016;2022-12-29T08:07:33;7.50;99.90
31084;DHT22;36333;51.382;0.016;2022-12-29T08:10:01;7.50;99.90
31084;DHT22;36333;51.382;0.016;2022-12-29T08:12:28;7.50;99.90
31084;DHT22;36333;51.382;0.016;2022-12-29T08:14:56;7.50;99.90
31084;DHT22;36333;51.382;0.016;2022-12-29T08:17:23;7.50;99.90
31084;DHT22;36333;51.382;0.016;2022-12-29T08:19:51;7.40;99.90
31084;DHT22;36333;51.382;0.016;2022-12-29T08:22:18;7.30;99.90
31084;DHT22;36333;51.382;0.016;2022-12-29T08:24:46;7.50;99.90
31084;DHT22;36333;51.382;0.016;2022-12-29T08:27:14;8.80;99.90
31084;DHT22;36333;51.382;0.016;2022-12-29T08:29:48;7.40;99.90
31084;DHT22;36333;51.382;0.016;2022-12-29T08:32:16;8.70;99.90
31084;DHT22;36333;51.382;0.016;2022-12-29T08:34:44;7.40;99.90
31084;DHT22;36333;51.382;0.016;2022-12-29T08:37:11;7.40;99.90
31084;DHT22;36333;51.382;0.016;2022-12-29T08:39:39;7.40;99.90
31084;DHT22;36333;51.382;0.016;2022-12-29T08:42:07;7.40;99.90
31084;DHT22;36333;51.382;0.016;2022-12-29T08:44:34;7.40;99.90
31084;DHT22;36333;51.382;0.016;2022-12-29T08:47:01;7.40;99.90
31084;DHT22;36333;51.382;0.016;2022-12-29T08:49:29;7.40;99.90
31084;DHT22;36333;51.382;0.016;2022-12-29T08:51:56;7.40;99.90
31084;DHT22;36333;51.382;0.016;2022-12-29T08:54:24;8.10;99.90
31084;DHT22;36333;51.382;0.016;2022-12-29T08:56:52;7.40;99.90
31084;DHT22;36333;51.382;0.016;2022-12-29T08:59:24;7.30;99.90
31084;DHT22;36333;51.382;0.016;2022-12-29T09:01:52;7.40;99.90
31084;DHT22;36333;51.382;0.016;2022-12-29T09:04:19;7.40;99.90
31084;DHT22;36333;51.382;0.016;2022-12-29T09:06:47;7.40;99.90
31084;DHT22;36333;51.382;0.016;2022-12-29T09:09:15;7.40;99.90
31084;DHT22;36333;51.382;0.016;2022-12-29T09:11:43;7.50;99.90
31084;DHT22;36333;51.382;0.016;2022-12-29T09:14:11;7.50;99.90
31084;DHT22;36333;51.382;0.016;2022-12-29T09:16:39;7.40;99.90
31084;DHT22;36333;51.382;0.016;2022-12-29T09:19:25;9.00;99.90
31084;DHT22;36333;51.382;0.016;2022-12-29T09:21:53;7.50;99.90
31084;DHT22;36333;51.382;0.016;2022-12-29T09:24:20;7.50;99.90
31084;DHT22;36333;51.382;0.016;2022-12-29T09:26:48;7.60;99.90
31084;DHT22;36333;51.382;0.016;2022-12-29T09:29:15;7.60;99.90
31084;DHT22;36333;51.382;0.016;2022-12-29T09:31:43;7.60;99.90
31084;DHT22;36333;51.382;0.016;2022-12-29T09:34:10;7.60;99.90
31084;DHT22;36333;51.382;0.016;2022-12-29T09:36:38;8.70;99.90
31084;DHT22;36333;51.382;0.016;2022-12-29T09:39:05;7.60;99.90
31084;DHT22;36333;51.382;0.016;2022-12-29T09:46:59;8.30;99.90
31084;DHT22;36333;51.382;0.016;2022-12-29T09:52:55;7.60;99.90
31084;DHT22;36333;51.382;0.016;2022-12-29T09:55:17;7.70;99.90
31084;DHT22;36333;51.382;0.016;2022-12-29T10:00:19;8.40;99.90
31084;DHT22;36333;51.382;0.016;2022-12-29T10:02:51;9.50;99.90
31084;DHT22;36333;51.382;0.016;2022-12-29T10:05:39;7.80;99.90
31084;DHT22;36333;51.382;0.016;2022-12-29T10:08:20;7.80;99.90
31084;DHT22;36333;51.382;0.016;2022-12-29T10:11:02;9.30;99.90
31084;DHT22;36333;51.382;0.016;2022-12-29T10:16:43;8.50;99.90
31084;DHT22;36333;51.382;0.016;2022-12-29T10:24:29;9.00;99.90
31084;DHT22;36333;51.382;0.016;2022-12-29T10:26:58;8.20;99.90
31084;DHT22;36333;51.382;0.016;2022-12-29T10:29:33;8.30;99.90
31084;DHT22;36333;51.382;0.016;2022-12-29T10:32:07;9.20;99.90
31084;DHT22;36333;51.382;0.016;2022-12-29T10:34:42;9.90;99.90
31084;DHT22;36333;51.382;0.016;2022-12-29T10:39:49;9.40;99.90
31084;DHT22;36333;51.382;0.016;2022-12-29T10:42:29;9.20;99.90
31084;DHT22;36333;51.382;0.016;2022-12-29T10:45:00;8.70;99.90
31084;DHT22;36333;51.382;0.016;2022-12-29T10:47:34;8.60;99.90
31084;DHT22;36333;51.382;0.016;2022-12-29T10:50:02;8.70;99.90
31084;DHT22;36333;51.382;0.016;2022-12-29T10:52:30;8.80;99.90
31084;DHT22;36333;51.382;0.016;2022-12-29T10:55:15;8.80;99.90
31084;DHT22;36333;51.382;0.016;2022-12-29T10:57:45;8.90;99.90
31084;DHT22;36333;51.382;0.016;2022-12-29T11:00:18;9.00;99.90
31084;DHT22;36333;51.382;0.016;2022-12-29T11:08:21;9.00;99.90
31084;DHT22;36333;51.382;0.016;2022-12-29T11:11:06;9.00;99.90
31084;DHT22;36333;51.382;0.016;2022-12-29T11:13:58;9.30;99.90
31084;DHT22;36333;51.382;0.016;2022-12-29T11:16:33;9.00;99.90
31084;DHT22;36333;51.382;0.016;2022-12-29T11:19:02;11.30;99.90
31084;DHT22;36333;51.382;0.016;2022-12-29T11:21:31;10.70;99.90
31084;DHT22;36333;51.382;0.016;2022-12-29T11:24:25;11.30;99.90
31084;DHT22;36333;51.382;0.016;2022-12-29T11:26:54;8.70;99.90
31084;DHT22;36333;51.382;0.016;2022-12-29T11:29:28;8.70;99.90
31084;DHT22;36333;51.382;0.016;2022-12-29T11:31:58;8.70;99.90
31084;DHT22;36333;51.382;0.016;2022-12-29T11:34:35;10.40;99.90
31084;DHT22;36333;51.382;0.016;2022-12-29T11:37:11;8.70;99.90
31084;DHT22;36333;51.382;0.016;2022-12-29T11:42:20;8.70;99.90
31084;DHT22;36333;51.382;0.016;2022-12-29T11:44:50;8.70;99.90
31084;DHT22;36333;51.382;0.016;2022-12-29T11:47:31;10.50;99.90
31084;DHT22;36333;51.382;0.016;2022-12-29T11:50:05;10.20;99.90
31084;DHT22;36333;51.382;0.016;2022-12-29T11:52:36;8.80;99.90
31084;DHT22;36333;51.382;0.016;2022-12-29T11:55:20;9.90;99.90
31084;DHT22;36333;51.382;0.016;2022-12-29T11:57:50;8.90;99.90
31084;DHT22;36333;51.382;0.016;2022-12-29T12:00:21;9.00;99.90
31084;DHT22;36333;51.382;0.016;2022-12-29T12:02:56;9.10;99.90
31084;DHT22;36333;51.382;0.016;2022-12-29T12:08:20;9.20;99.90
31084;DHT22;36333;51.382;0.016;2022-12-29T12:10:57;9.20;99.90
31084;DHT22;36333;51.382;0.016;2022-12-29T12:16:21;9.20;99.90
31084;DHT22;36333;51.382;0.016;2022-12-29T12:19:02;9.10;99.90
31084;DHT22;36333;51.382;0.016;2022-12-29T12:21:42;9.10;99.90
31084;DHT22;36333;51.382;0.016;2022-12-29T12:26:59;9.10;99.90
31084;DHT22;36333;51.382;0.016;2022-12-29T12:29:52;9.00;99.90
31084;DHT22;36333;51.382;0.016;2022-12-29T12:32:40;9.00;99.90
31084;DHT22;36333;51.382;0.016;2022-12-29T12:35:20;9.00;99.90
31084;DHT22;36333;51.382;0.016;2022-12-29T12:43:37;9.00;99.90
31084;DHT22;36333;51.382;0.016;2022-12-29T12:57:02;9.10;99.90
31084;DHT22;36333;51.382;0.016;2022-12-29T13:05:19;8.80;99.90
31084;DHT22;36333;51.382;0.016;2022-12-29T13:19:34;8.90;99.90
31084;DHT22;36333;51.382;0.016;2022-12-29T13:22:42;8.90;99.90
31084;DHT22;36333;51.382;0.016;2022-12-29T13:31:19;9.20;99.90
31084;DHT22;36333;51.382;0.016;2022-12-29T13:34:25;9.30;99.90
31084;DHT22;36333;51.382;0.016;2022-12-29T13:37:03;9.40;99.90
31084;DHT22;36333;51.382;0.016;2022-12-29T13:39:38;9.40;99.90
31084;DHT22;36333;51.382;0.016;2022-12-29T13:42:06;9.50;99.90
31084;DHT22;36333;51.382;0.016;2022-12-29T13:44:35;9.40;99.90
31084;DHT22;36333;51.382;0.016;2022-12-29T13:47:31;9.60;99.90
31084;DHT22;36333;51.382;0.016;2022-12-29T13:50:02;9.60;99.90
31084;DHT22;36333;51.382;0.016;2022-12-29T13:55:35;9.50;99.90
31084;DHT22;36333;51.382;0.016;2022-12-29T14:01:31;9.40;99.90
31084;DHT22;36333;51.382;0.016;2022-12-29T14:04:08;9.30;99.90
31084;DHT22;36333;51.382;0.016;2022-12-29T14:06:36;9.20;99.90
31084;DHT22;36333;51.382;0.016;2022-12-29T14:15:19;9.10;99.90
31084;DHT22;36333;51.382;0.016;2022-12-29T14:18:10;9.20;99.90
31084;DHT22;36333;51.382;0.016;2022-12-29T14:20:52;9.20;99.90
31084;DHT22;36333;51.382;0.016;2022-12-29T14:23:39;9.30;99.90
31084;DHT22;36333;51.382;0.016;2022-12-29T14:31:52;9.40;99.90
31084;DHT22;36333;51.382;0.016;2022-12-29T14:36:57;9.30;99.90
31084;DHT22;36333;51.382;0.016;2022-12-29T14:39:45;9.50;99.90
31084;DHT22;36333;51.382;0.016;2022-12-29T14:42:15;9.30;99.90
31084;DHT22;36333;51.382;0.016;2022-12-29T14:45:02;9.20;99.90
31084;DHT22;36333;51.382;0.016;2022-12-29T14:47:37;9.10;99.90
31084;DHT22;36333;51.382;0.016;2022-12-29T14:53:03;8.90;99.90
31084;DHT22;36333;51.382;0.016;2022-12-29T14:55:41;8.80;99.90
31084;DHT22;36333;51.382;0.016;2022-12-29T14:58:29;8.80;99.90
31084;DHT22;36333;51.382;0.016;2022-12-29T15:00:59;8.70;99.90
31084;DHT22;36333;51.382;0.016;2022-12-29T15:03:43;9.80;99.90
31084;DHT22;36333;51.382;0.016;2022-12-29T15:06:15;8.80;99.90
31084;DHT22;36333;51.382;0.016;2022-12-29T15:08:54;8.90;99.90
31084;DHT22;36333;51.382;0.016;2022-12-29T15:11:42;8.60;99.90
31084;DHT22;36333;51.382;0.016;2022-12-29T15:14:33;8.90;99.90
31084;DHT22;36333;51.382;0.016;2022-12-29T15:17:09;8.40;99.90
31084;DHT22;36333;51.382;0.016;2022-12-29T15:19:38;8.40;99.90
31084;DHT22;36333;51.382;0.016;2022-12-29T15:22:06;8.90;99.90
31084;DHT22;36333;51.382;0.016;2022-12-29T15:24:34;8.40;99.90
31084;DHT22;36333;51.382;0.016;2022-12-29T15:27:18;9.40;99.90
31084;DHT22;36333;51.382;0.016;2022-12-29T15:29:47;9.60;99.90
31084;DHT22;36333;51.382;0.016;2022-12-29T15:34:47;8.30;99.90
31084;DHT22;36333;51.382;0.016;2022-12-29T15:37:24;8.20;99.90
31084;DHT22;36333;51.382;0.016;2022-12-29T15:39:53;8.10;99.90
31084;DHT22;36333;51.382;0.016;2022-12-29T15:42:50;8.60;99.90
31084;DHT22;36333;51.382;0.016;2022-12-29T15:45:30;8.00;99.90
31084;DHT22;36333;51.382;0.016;2022-12-29T15:47:59;8.00;99.90
31084;DHT22;36333;51.382;0.016;2022-12-29T15:50:32;9.10;99.90
31084;DHT22;36333;51.382;0.016;2022-12-29T15:53:01;7.80;99.90
31084;DHT22;36333;51.382;0.016;2022-12-29T15:55:35;7.80;99.90
31084;DHT22;36333;51.382;0.016;2022-12-29T15:58:05;8.80;99.90
31084;DHT22;36333;51.382;0.016;2022-12-29T16:00:48;7.80;99.90
31084;DHT22;36333;51.382;0.016;2022-12-29T16:03:16;8.50;99.90
31084;DHT22;36333;51.382;0.016;2022-12-29T16:06:06;7.90;99.90
31084;DHT22;36333;51.382;0.016;2022-12-29T16:08:37;7.70;99.90
31084;DHT22;36333;51.382;0.016;2022-12-29T16:11:35;8.60;99.90
31084;DHT22;36333;51.382;0.016;2022-12-29T16:14:18;7.60;99.90
31084;DHT22;36333;51.382;0.016;2022-12-29T16:16:47;7.70;99.90
31084;DHT22;36333;51.382;0.016;2022-12-29T16:19:25;7.60;99.90
31084;DHT22;36333;51.382;0.016;2022-12-29T16:21:54;7.50;99.90
31084;DHT22;36333;51.382;0.016;2022-12-29T16:24:25;7.50;99.90
31084;DHT22;36333;51.382;0.016;2022-12-29T16:27:25;7.40;99.90
31084;DHT22;36333;51.382;0.016;2022-12-29T16:29:54;7.40;99.90
31084;DHT22;36333;51.382;0.016;2022-12-29T16:32:26;7.30;99.90
31084;DHT22;36333;51.382;0.016;2022-12-29T16:35:10;7.20;99.90
31084;DHT22;36333;51.382;0.016;2022-12-29T16:37:38;7.20;99.90
31084;DHT22;36333;51.382;0.016;2022-12-29T16:42:49;7.00;99.90
31084;DHT22;36333;51.382;0.016;2022-12-29T16:50:39;6.90;99.90
31084;DHT22;36333;51.382;0.016;2022-12-29T16:53:31;6.90;99.90
31084;DHT22;36333;51.382;0.016;2022-12-29T16:56:05;6.80;99.90
31084;DHT22;36333;51.382;0.016;2022-12-29T16:58:34;6.80;99.90
31084;DHT22;36333;51.382;0.016;2022-12-29T17:01:04;6.80;99.90
31084;DHT22;36333;51.382;0.016;2022-12-29T17:03:39;6.80;99.90
31084;DHT22;36333;51.382;0.016;2022-12-29T17:06:17;6.70;99.90
31084;DHT22;36333;51.382;0.016;2022-12-29T17:08:46;6.80;99.90
31084;DHT22;36333;51.382;0.016;2022-12-29T17:11:22;6.80;99.90
31084;DHT22;36333;51.382;0.016;2022-12-29T17:14:38;6.70;99.90
31084;DHT22;36333;51.382;0.016;2022-12-29T17:17:20;6.70;99.90
31084;DHT22;36333;51.382;0.016;2022-12-29T17:19:54;6.60;99.90
31084;DHT22;36333;51.382;0.016;2022-12-29T17:22:25;6.60;99.90
31084;DHT22;36333;51.382;0.016;2022-12-29T17:24:54;6.60;99.90
31084;DHT22;36333;51.382;0.016;2022-12-29T17:27:28;6.50;99.90
31084;DHT22;36333;51.382;0.016;2022-12-29T17:30:00;6.50;99.90
31084;DHT22;36333;51.382;0.016;2022-12-29T17:32:30;6.60;99.90
31084;DHT22;36333;51.382;0.016;2022-12-29T17:34:57;6.60;99.90
31084;DHT22;36333;51.382;0.016;2022-12-29T17:37:31;6.50;99.90
31084;DHT22;36333;51.382;0.016;2022-12-29T17:39:59;6.50;99.90
31084;DHT22;36333;51.382;0.016;2022-12-29T17:42:26;6.50;99.90
31084;DHT22;36333;51.382;0.016;2022-12-29T17:44:54;6.50;99.90
31084;DHT22;36333;51.382;0.016;2022-12-29T17:47:22;9.00;99.90
31084;DHT22;36333;51.382;0.016;2022-12-29T17:49:50;8.50;99.90
31084;DHT22;36333;51.382;0.016;2022-12-29T17:52:18;6.40;99.90
31084;DHT22;36333;51.382;0.016;2022-12-29T17:54:51;8.10;99.90
31084;DHT22;36333;51.382;0.016;2022-12-29T17:57:20;6.60;99.90
31084;DHT22;36333;51.382;0.016;2022-12-29T17:59:48;6.30;99.90
31084;DHT22;36333;51.382;0.016;2022-12-29T18:02:23;6.60;99.90
31084;DHT22;36333;51.382;0.016;2022-12-29T18:04:52;6.30;99.90
31084;DHT22;36333;51.382;0.016;2022-12-29T18:07:21;6.30;99.90
31084;DHT22;36333;51.382;0.016;2022-12-29T18:09:49;6.30;99.90
31084;DHT22;36333;51.382;0.016;2022-12-29T18:12:29;6.30;99.90
31084;DHT22;36333;51.382;0.016;2022-12-29T18:15:00;6.30;99.90
31084;DHT22;36333;51.382;0.016;2022-12-29T18:17:30;6.60;99.90
31084;DHT22;36333;51.382;0.016;2022-12-29T18:19:58;6.20;99.90
31084;DHT22;36333;51.382;0.016;2022-12-29T18:22:25;6.30;99.90
31084;DHT22;36333;51.382;0.016;2022-12-29T18:24:55;6.20;99.90
31084;DHT22;36333;51.382;0.016;2022-12-29T18:27:22;8.50;99.90
31084;DHT22;36333;51.382;0.016;2022-12-29T18:29:50;6.20;99.90
31084;DHT22;36333;51.382;0.016;2022-12-29T18:32:18;6.20;99.90
31084;DHT22;36333;51.382;0.016;2022-12-29T18:34:46;6.60;99.90
31084;DHT22;36333;51.382;0.016;2022-12-29T18:37:15;3.90;99.90
31084;DHT22;36333;51.382;0.016;2022-12-29T18:39:42;6.60;99.90
31084;DHT22;36333;51.382;0.016;2022-12-29T18:42:15;8.20;99.90
31084;DHT22;36333;51.382;0.016;2022-12-29T18:44:43;6.10;99.90
31084;DHT22;36333;51.382;0.016;2022-12-29T18:47:11;8.40;99.90
31084;DHT22;36333;51.382;0.016;2022-12-29T18:49:39;7.60;99.90
31084;DHT22;36333;51.382;0.016;2022-12-29T18:52:11;7.70;99.90
31084;DHT22;36333;51.382;0.016;2022-12-29T18:54:40;6.10;99.90
31084;DHT22;36333;51.382;0.016;2022-12-29T18:57:07;6.10;99.90
31084;DHT22;36333;51.382;0.016;2022-12-29T18:59:34;7.30;99.90
31084;DHT22;36333;51.382;0.016;2022-12-29T19:02:02;5.90;99.90
31084;DHT22;36333;51.382;0.016;2022-12-29T19:04:30;5.90;99.90